sensor_id;sensor_type;location;lat;lon;timestamp;P1;durP1;ratioP1;P2;durP2;ratioP2
9222;SDS011;7557;51.698;3.942;2023-05-07T00:02:11;16.45;;;14.73;;
9222;SDS011;7557;51.698;3.942;2023-05-07T00:04:39;21.02;;;15.73;;
9222;SDS011;7557;51.698;3.942;2023-05-07T00:07:07;16.08;;;14.60;;
9222;SDS011;7557;51.698;3.942;2023-05-07T00:09:35;17.88;;;16.17;;
9222;SDS011;7557;51.698;3.942;2023-05-07T00:12:03;18.05;;;16.17;;
9222;SDS011;7557;51.698;3.942;2023-05-07T00:14:31;16.10;;;14.63;;
9222;SDS011;7557;51.698;3.942;2023-05-07T00:17:00;16.98;;;15.52;;
9222;SDS011;7557;51.698;3.942;2023-05-07T00:19:28;19.25;;;16.63;;
9222;SDS011;7557;51.698;3.942;2023-05-07T00:21:57;17.92;;;16.20;;
9222;SDS011;7557;51.698;3.942;2023-05-07T00:24:24;18.77;;;16.70;;
9222;SDS011;7557;51.698;3.942;2023-05-07T00:26:52;17.88;;;16.00;;
9222;SDS011;7557;51.698;3.942;2023-05-07T00:29:19;17.33;;;15.52;;
9222;SDS011;7557;51.698;3.942;2023-05-07T00:31:48;17.95;;;16.25;;
9222;SDS011;7557;51.698;3.942;2023-05-07T00:34:18;18.80;;;16.88;;
9222;SDS011;7557;51.698;3.942;2023-05-07T00:36:46;17.55;;;16.00;;
9222;SDS011;7557;51.698;3.942;2023-05-07T00:39:14;18.92;;;16.77;;
9222;SDS011;7557;51.698;3.942;2023-05-07T00:41:41;20.73;;;17.88;;
9222;SDS011;7557;51.698;3.942;2023-05-07T00:44:09;19.13;;;17.30;;
9222;SDS011;7557;51.698;3.942;2023-05-07T00:46:36;19.00;;;17.30;;
9222;SDS011;7557;51.698;3.942;2023-05-07T00:49:05;19.55;;;17.52;;
9222;SDS011;7557;51.698;3.942;2023-05-07T00:51:34;20.50;;;18.50;;
9222;SDS011;7557;51.698;3.942;2023-05-07T00:54:02;20.60;;;18.45;;
9222;SDS011;7557;51.698;3.942;2023-05-07T00:56:30;19.40;;;17.63;;
9222;SDS011;7557;51.698;3.942;2023-05-07T00:58:59;18.25;;;16.33;;
9222;SDS011;7557;51.698;3.942;2023-05-07T01:01:28;19.08;;;17.27;;
9222;SDS011;7557;51.698;3.942;2023-05-07T01:03:55;19.13;;;17.23;;
9222;SDS011;7557;51.698;3.942;2023-05-07T01:06:23;18.42;;;16.60;;
9222;SDS011;7557;51.698;3.942;2023-05-07T01:08:54;19.15;;;17.33;;
9222;SDS011;7557;51.698;3.942;2023-05-07T01:11:22;18.95;;;17.25;;
9222;SDS011;7557;51.698;3.942;2023-05-07T01:13:50;18.20;;;16.55;;
9222;SDS011;7557;51.698;3.942;2023-05-07T01:16:18;18.02;;;16.42;;
9222;SDS011;7557;51.698;3.942;2023-05-07T01:18:46;18.35;;;16.73;;
9222;SDS011;7557;51.698;3.942;2023-05-07T01:21:14;18.02;;;16.40;;
9222;SDS011;7557;51.698;3.942;2023-05-07T01:23:45;17.65;;;16.15;;
9222;SDS011;7557;51.698;3.942;2023-05-07T01:26:13;18.33;;;16.45;;
9222;SDS011;7557;51.698;3.942;2023-05-07T01:28:41;18.10;;;16.50;;
9222;SDS011;7557;51.698;3.942;2023-05-07T01:31:08;16.92;;;15.35;;
9222;SDS011;7557;51.698;3.942;2023-05-07T01:33:36;16.48;;;15.07;;
9222;SDS011;7557;51.698;3.942;2023-05-07T01:36:07;16.30;;;14.82;;
9222;SDS011;7557;51.698;3.942;2023-05-07T01:38:36;16.90;;;15.40;;
9222;SDS011;7557;51.698;3.942;2023-05-07T01:41:05;18.35;;;16.75;;
9222;SDS011;7557;51.698;3.942;2023-05-07T01:43:33;17.35;;;15.85;;
9222;SDS011;7557;51.698;3.942;2023-05-07T01:46:01;18.75;;;17.15;;
9222;SDS011;7557;51.698;3.942;2023-05-07T01:48:28;17.63;;;15.95;;
9222;SDS011;7557;51.698;3.942;2023-05-07T01:50:57;18.80;;;17.10;;
9222;SDS011;7557;51.698;3.942;2023-05-07T01:53:26;16.70;;;15.27;;
9222;SDS011;7557;51.698;3.942;2023-05-07T01:55:54;17.77;;;16.17;;
9222;SDS011;7557;51.698;3.942;2023-05-07T01:58:22;17.63;;;16.00;;
9222;SDS011;7557;51.698;3.942;2023-05-07T02:00:50;19.95;;;17.92;;
9222;SDS011;7557;51.698;3.942;2023-05-07T02:03:17;18.75;;;16.88;;
9222;SDS011;7557;51.698;3.942;2023-05-07T02:05:45;18.42;;;16.73;;
9222;SDS011;7557;51.698;3.942;2023-05-07T02:08:13;18.63;;;17.08;;
9222;SDS011;7557;51.698;3.942;2023-05-07T02:10:40;17.50;;;15.73;;
9222;SDS011;7557;51.698;3.942;2023-05-07T02:13:07;18.38;;;16.67;;
9222;SDS011;7557;51.698;3.942;2023-05-07T02:15:36;18.90;;;17.20;;
9222;SDS011;7557;51.698;3.942;2023-05-07T02:18:04;17.33;;;15.73;;
9222;SDS011;7557;51.698;3.942;2023-05-07T02:20:32;17.88;;;16.35;;
9222;SDS011;7557;51.698;3.942;2023-05-07T02:23:00;19.45;;;17.58;;
9222;SDS011;7557;51.698;3.942;2023-05-07T02:25:27;17.70;;;16.00;;
9222;SDS011;7557;51.698;3.942;2023-05-07T02:27:55;18.35;;;16.58;;
9222;SDS011;7557;51.698;3.942;2023-05-07T02:30:22;18.55;;;16.75;;
9222;SDS011;7557;51.698;3.942;2023-05-07T02:32:51;16.55;;;15.02;;
9222;SDS011;7557;51.698;3.942;2023-05-07T02:35:18;17.00;;;15.60;;
9222;SDS011;7557;51.698;3.942;2023-05-07T02:37:46;17.90;;;16.25;;
9222;SDS011;7557;51.698;3.942;2023-05-07T02:40:13;19.75;;;17.70;;
9222;SDS011;7557;51.698;3.942;2023-05-07T02:42:40;19.67;;;17.88;;
9222;SDS011;7557;51.698;3.942;2023-05-07T02:45:08;20.13;;;18.30;;
9222;SDS011;7557;51.698;3.942;2023-05-07T02:47:36;18.77;;;16.88;;
9222;SDS011;7557;51.698;3.942;2023-05-07T02:50:05;18.98;;;17.20;;
9222;SDS011;7557;51.698;3.942;2023-05-07T02:52:33;19.00;;;17.30;;
9222;SDS011;7557;51.698;3.942;2023-05-07T02:55:00;19.17;;;17.48;;
9222;SDS011;7557;51.698;3.942;2023-05-07T02:57:27;19.60;;;17.73;;
9222;SDS011;7557;51.698;3.942;2023-05-07T02:59:55;17.45;;;15.98;;
9222;SDS011;7557;51.698;3.942;2023-05-07T03:02:24;17.55;;;15.85;;
9222;SDS011;7557;51.698;3.942;2023-05-07T03:04:51;17.38;;;15.90;;
9222;SDS011;7557;51.698;3.942;2023-05-07T03:07:20;17.45;;;15.95;;
9222;SDS011;7557;51.698;3.942;2023-05-07T03:09:47;18.60;;;17.00;;
9222;SDS011;7557;51.698;3.942;2023-05-07T03:12:14;18.52;;;16.92;;
9222;SDS011;7557;51.698;3.942;2023-05-07T03:14:42;19.52;;;17.67;;
9222;SDS011;7557;51.698;3.942;2023-05-07T03:17:09;19.83;;;18.02;;
9222;SDS011;7557;51.698;3.942;2023-05-07T03:19:36;19.80;;;17.83;;
9222;SDS011;7557;51.698;3.942;2023-05-07T03:22:03;19.58;;;17.80;;
9222;SDS011;7557;51.698;3.942;2023-05-07T03:24:32;22.00;;;20.08;;
9222;SDS011;7557;51.698;3.942;2023-05-07T03:26:59;24.27;;;21.98;;
9222;SDS011;7557;51.698;3.942;2023-05-07T03:29:27;22.80;;;20.60;;
9222;SDS011;7557;51.698;3.942;2023-05-07T03:31:54;22.88;;;20.70;;
9222;SDS011;7557;51.698;3.942;2023-05-07T03:34:21;22.38;;;20.38;;
9222;SDS011;7557;51.698;3.942;2023-05-07T03:36:50;22.55;;;20.48;;
9222;SDS011;7557;51.698;3.942;2023-05-07T03:39:18;22.38;;;20.17;;
9222;SDS011;7557;51.698;3.942;2023-05-07T03:41:47;23.75;;;21.58;;
9222;SDS011;7557;51.698;3.942;2023-05-07T03:44:14;23.80;;;21.60;;
9222;SDS011;7557;51.698;3.942;2023-05-07T03:46:41;21.58;;;19.60;;
9222;SDS011;7557;51.698;3.942;2023-05-07T03:49:08;21.35;;;19.40;;
9222;SDS011;7557;51.698;3.942;2023-05-07T03:51:36;23.88;;;21.48;;
9222;SDS011;7557;51.698;3.942;2023-05-07T03:54:03;21.83;;;19.58;;
9222;SDS011;7557;51.698;3.942;2023-05-07T03:56:30;22.52;;;20.63;;
9222;SDS011;7557;51.698;3.942;2023-05-07T03:58:59;21.83;;;20.02;;
9222;SDS011;7557;51.698;3.942;2023-05-07T04:01:27;22.77;;;20.70;;
9222;SDS011;7557;51.698;3.942;2023-05-07T04:03:54;22.48;;;20.38;;
9222;SDS011;7557;51.698;3.942;2023-05-07T04:06:21;25.92;;;23.45;;
9222;SDS011;7557;51.698;3.942;2023-05-07T04:08:49;24.25;;;22.02;;
9222;SDS011;7557;51.698;3.942;2023-05-07T04:11:16;23.80;;;21.52;;
9222;SDS011;7557;51.698;3.942;2023-05-07T04:13:43;23.13;;;20.92;;
9222;SDS011;7557;51.698;3.942;2023-05-07T04:16:12;23.50;;;21.30;;
9222;SDS011;7557;51.698;3.942;2023-05-07T04:18:39;23.60;;;21.30;;
9222;SDS011;7557;51.698;3.942;2023-05-07T04:21:10;23.88;;;21.60;;
9222;SDS011;7557;51.698;3.942;2023-05-07T04:23:40;25.25;;;22.85;;
9222;SDS011;7557;51.698;3.942;2023-05-07T04:26:07;22.92;;;20.67;;
9222;SDS011;7557;51.698;3.942;2023-05-07T04:28:35;23.38;;;20.95;;
9222;SDS011;7557;51.698;3.942;2023-05-07T04:31:02;25.30;;;23.10;;
9222;SDS011;7557;51.698;3.942;2023-05-07T04:33:32;23.40;;;21.27;;
9222;SDS011;7557;51.698;3.942;2023-05-07T04:36:01;25.13;;;22.60;;
9222;SDS011;7557;51.698;3.942;2023-05-07T04:38:29;24.50;;;22.30;;
9222;SDS011;7557;51.698;3.942;2023-05-07T04:40:56;24.05;;;21.98;;
9222;SDS011;7557;51.698;3.942;2023-05-07T04:43:23;24.02;;;21.73;;
9222;SDS011;7557;51.698;3.942;2023-05-07T04:45:51;24.17;;;21.77;;
9222;SDS011;7557;51.698;3.942;2023-05-07T04:48:18;23.70;;;21.67;;
9222;SDS011;7557;51.698;3.942;2023-05-07T04:50:48;24.38;;;22.23;;
9222;SDS011;7557;51.698;3.942;2023-05-07T04:53:15;24.50;;;22.40;;
9222;SDS011;7557;51.698;3.942;2023-05-07T04:55:43;26.15;;;23.73;;
9222;SDS011;7557;51.698;3.942;2023-05-07T04:58:11;25.20;;;23.00;;
9222;SDS011;7557;51.698;3.942;2023-05-07T05:00:38;23.70;;;21.48;;
9222;SDS011;7557;51.698;3.942;2023-05-07T05:03:06;24.67;;;22.48;;
9222;SDS011;7557;51.698;3.942;2023-05-07T05:05:33;25.08;;;22.90;;
9222;SDS011;7557;51.698;3.942;2023-05-07T05:08:01;24.83;;;22.63;;
9222;SDS011;7557;51.698;3.942;2023-05-07T05:10:29;20.88;;;18.88;;
9222;SDS011;7557;51.698;3.942;2023-05-07T05:12:56;23.30;;;20.95;;
9222;SDS011;7557;51.698;3.942;2023-05-07T05:15:23;23.63;;;21.38;;
9222;SDS011;7557;51.698;3.942;2023-05-07T05:17:50;23.90;;;21.80;;
9222;SDS011;7557;51.698;3.942;2023-05-07T05:20:18;23.80;;;21.35;;
9222;SDS011;7557;51.698;3.942;2023-05-07T05:22:45;24.48;;;22.45;;
9222;SDS011;7557;51.698;3.942;2023-05-07T05:25:14;21.70;;;19.73;;
9222;SDS011;7557;51.698;3.942;2023-05-07T05:27:41;23.25;;;21.00;;
9222;SDS011;7557;51.698;3.942;2023-05-07T05:30:09;24.63;;;22.33;;
9222;SDS011;7557;51.698;3.942;2023-05-07T05:32:36;24.67;;;22.38;;
9222;SDS011;7557;51.698;3.942;2023-05-07T05:35:04;21.45;;;19.60;;
9222;SDS011;7557;51.698;3.942;2023-05-07T05:37:31;22.92;;;20.98;;
9222;SDS011;7557;51.698;3.942;2023-05-07T05:39:59;21.33;;;19.45;;
9222;SDS011;7557;51.698;3.942;2023-05-07T05:42:27;23.67;;;21.67;;
9222;SDS011;7557;51.698;3.942;2023-05-07T05:44:54;21.08;;;19.30;;
9222;SDS011;7557;51.698;3.942;2023-05-07T05:47:22;22.35;;;20.35;;
9222;SDS011;7557;51.698;3.942;2023-05-07T05:49:49;25.88;;;23.48;;
9222;SDS011;7557;51.698;3.942;2023-05-07T05:52:16;24.25;;;22.23;;
9222;SDS011;7557;51.698;3.942;2023-05-07T05:54:44;24.15;;;21.77;;
9222;SDS011;7557;51.698;3.942;2023-05-07T05:57:11;25.55;;;23.05;;
9222;SDS011;7557;51.698;3.942;2023-05-07T05:59:39;25.83;;;23.52;;
9222;SDS011;7557;51.698;3.942;2023-05-07T06:02:07;23.63;;;21.40;;
9222;SDS011;7557;51.698;3.942;2023-05-07T06:04:34;26.10;;;23.70;;
9222;SDS011;7557;51.698;3.942;2023-05-07T06:07:01;27.17;;;24.40;;
9222;SDS011;7557;51.698;3.942;2023-05-07T06:09:28;28.02;;;25.52;;
9222;SDS011;7557;51.698;3.942;2023-05-07T06:11:56;26.40;;;23.90;;
9222;SDS011;7557;51.698;3.942;2023-05-07T06:14:23;26.70;;;24.23;;
9222;SDS011;7557;51.698;3.942;2023-05-07T06:16:52;26.48;;;24.00;;
9222;SDS011;7557;51.698;3.942;2023-05-07T06:19:19;27.40;;;24.90;;
9222;SDS011;7557;51.698;3.942;2023-05-07T06:21:49;27.42;;;24.88;;
9222;SDS011;7557;51.698;3.942;2023-05-07T06:24:16;26.25;;;24.05;;
9222;SDS011;7557;51.698;3.942;2023-05-07T06:26:43;26.42;;;24.17;;
9222;SDS011;7557;51.698;3.942;2023-05-07T06:29:11;25.25;;;23.08;;
9222;SDS011;7557;51.698;3.942;2023-05-07T06:31:38;25.48;;;22.88;;
9222;SDS011;7557;51.698;3.942;2023-05-07T06:34:07;24.23;;;22.17;;
9222;SDS011;7557;51.698;3.942;2023-05-07T06:36:34;24.95;;;22.75;;
9222;SDS011;7557;51.698;3.942;2023-05-07T06:39:01;24.33;;;22.15;;
9222;SDS011;7557;51.698;3.942;2023-05-07T06:41:29;22.35;;;20.42;;
9222;SDS011;7557;51.698;3.942;2023-05-07T06:43:56;20.20;;;18.52;;
9222;SDS011;7557;51.698;3.942;2023-05-07T06:46:24;19.10;;;17.42;;
9222;SDS011;7557;51.698;3.942;2023-05-07T06:48:51;18.33;;;16.77;;
9222;SDS011;7557;51.698;3.942;2023-05-07T06:51:20;16.88;;;15.50;;
9222;SDS011;7557;51.698;3.942;2023-05-07T06:53:48;18.20;;;16.50;;
9222;SDS011;7557;51.698;3.942;2023-05-07T06:56:18;17.10;;;15.50;;
9222;SDS011;7557;51.698;3.942;2023-05-07T06:58:46;16.15;;;14.65;;
9222;SDS011;7557;51.698;3.942;2023-05-07T07:01:13;17.45;;;15.85;;
9222;SDS011;7557;51.698;3.942;2023-05-07T07:03:41;17.65;;;16.05;;
9222;SDS011;7557;51.698;3.942;2023-05-07T07:06:09;15.98;;;14.70;;
9222;SDS011;7557;51.698;3.942;2023-05-07T07:08:38;15.68;;;14.48;;
9222;SDS011;7557;51.698;3.942;2023-05-07T07:11:05;14.95;;;13.85;;
9222;SDS011;7557;51.698;3.942;2023-05-07T07:13:33;15.90;;;14.30;;
9222;SDS011;7557;51.698;3.942;2023-05-07T07:16:00;15.45;;;14.02;;
9222;SDS011;7557;51.698;3.942;2023-05-07T07:18:28;14.00;;;12.90;;
9222;SDS011;7557;51.698;3.942;2023-05-07T07:20:55;14.73;;;13.52;;
9222;SDS011;7557;51.698;3.942;2023-05-07T07:23:23;14.88;;;13.60;;
9222;SDS011;7557;51.698;3.942;2023-05-07T07:25:52;13.35;;;12.20;;
9222;SDS011;7557;51.698;3.942;2023-05-07T07:28:20;15.73;;;14.15;;
9222;SDS011;7557;51.698;3.942;2023-05-07T07:30:48;15.27;;;13.88;;
9222;SDS011;7557;51.698;3.942;2023-05-07T07:33:16;13.05;;;11.85;;
9222;SDS011;7557;51.698;3.942;2023-05-07T07:35:47;14.10;;;12.90;;
9222;SDS011;7557;51.698;3.942;2023-05-07T07:38:15;13.80;;;12.48;;
9222;SDS011;7557;51.698;3.942;2023-05-07T07:40:42;14.80;;;13.55;;
9222;SDS011;7557;51.698;3.942;2023-05-07T07:43:14;15.63;;;14.20;;
9222;SDS011;7557;51.698;3.942;2023-05-07T07:45:41;14.27;;;13.07;;
9222;SDS011;7557;51.698;3.942;2023-05-07T07:48:09;12.98;;;11.85;;
9222;SDS011;7557;51.698;3.942;2023-05-07T07:50:36;14.77;;;13.35;;
9222;SDS011;7557;51.698;3.942;2023-05-07T07:53:04;14.70;;;13.40;;
9222;SDS011;7557;51.698;3.942;2023-05-07T07:55:32;13.93;;;12.73;;
9222;SDS011;7557;51.698;3.942;2023-05-07T07:58:04;13.98;;;12.57;;
9222;SDS011;7557;51.698;3.942;2023-05-07T08:00:33;14.82;;;13.65;;
9222;SDS011;7557;51.698;3.942;2023-05-07T08:03:01;14.70;;;13.35;;
9222;SDS011;7557;51.698;3.942;2023-05-07T08:05:28;14.85;;;13.65;;
9222;SDS011;7557;51.698;3.942;2023-05-07T08:07:56;14.68;;;13.30;;
9222;SDS011;7557;51.698;3.942;2023-05-07T08:10:24;14.93;;;13.70;;
9222;SDS011;7557;51.698;3.942;2023-05-07T08:12:52;15.18;;;13.52;;
9222;SDS011;7557;51.698;3.942;2023-05-07T08:15:19;15.07;;;13.57;;
9222;SDS011;7557;51.698;3.942;2023-05-07T08:17:48;15.63;;;14.32;;
9222;SDS011;7557;51.698;3.942;2023-05-07T08:20:15;14.80;;;13.60;;
9222;SDS011;7557;51.698;3.942;2023-05-07T08:22:42;14.73;;;13.27;;
9222;SDS011;7557;51.698;3.942;2023-05-07T08:25:09;14.77;;;13.50;;
9222;SDS011;7557;51.698;3.942;2023-05-07T08:27:37;13.77;;;12.70;;
9222;SDS011;7557;51.698;3.942;2023-05-07T08:30:04;12.82;;;11.50;;
9222;SDS011;7557;51.698;3.942;2023-05-07T08:32:32;15.20;;;11.02;;
9222;SDS011;7557;51.698;3.942;2023-05-07T08:35:01;12.45;;;10.65;;
9222;SDS011;7557;51.698;3.942;2023-05-07T08:37:28;13.93;;;11.50;;
9222;SDS011;7557;51.698;3.942;2023-05-07T08:39:56;13.48;;;12.20;;
9222;SDS011;7557;51.698;3.942;2023-05-07T08:42:23;14.15;;;12.77;;
9222;SDS011;7557;51.698;3.942;2023-05-07T08:44:51;13.10;;;11.95;;
9222;SDS011;7557;51.698;3.942;2023-05-07T08:47:19;12.98;;;11.90;;
9222;SDS011;7557;51.698;3.942;2023-05-07T08:49:49;12.48;;;11.48;;
9222;SDS011;7557;51.698;3.942;2023-05-07T08:52:18;16.13;;;11.70;;
9222;SDS011;7557;51.698;3.942;2023-05-07T08:54:46;13.10;;;11.80;;
9222;SDS011;7557;51.698;3.942;2023-05-07T08:57:13;13.40;;;12.00;;
9222;SDS011;7557;51.698;3.942;2023-05-07T08:59:40;12.00;;;10.82;;
9222;SDS011;7557;51.698;3.942;2023-05-07T09:02:08;11.15;;;10.20;;
9222;SDS011;7557;51.698;3.942;2023-05-07T09:04:37;13.63;;;11.23;;
9222;SDS011;7557;51.698;3.942;2023-05-07T09:07:04;12.40;;;10.32;;
9222;SDS011;7557;51.698;3.942;2023-05-07T09:09:33;13.73;;;9.68;;
9222;SDS011;7557;51.698;3.942;2023-05-07T09:12:01;11.32;;;10.23;;
9222;SDS011;7557;51.698;3.942;2023-05-07T09:14:29;11.88;;;10.68;;
9222;SDS011;7557;51.698;3.942;2023-05-07T09:16:56;11.68;;;10.57;;
9222;SDS011;7557;51.698;3.942;2023-05-07T09:19:24;11.45;;;10.35;;
9222;SDS011;7557;51.698;3.942;2023-05-07T09:21:57;11.73;;;10.43;;
9222;SDS011;7557;51.698;3.942;2023-05-07T09:24:25;12.13;;;10.68;;
9222;SDS011;7557;51.698;3.942;2023-05-07T09:26:55;12.02;;;10.75;;
9222;SDS011;7557;51.698;3.942;2023-05-07T09:29:25;9.43;;;8.60;;
9222;SDS011;7557;51.698;3.942;2023-05-07T09:31:53;11.18;;;8.88;;
9222;SDS011;7557;51.698;3.942;2023-05-07T09:34:21;11.93;;;9.55;;
9222;SDS011;7557;51.698;3.942;2023-05-07T09:36:48;9.45;;;8.05;;
9222;SDS011;7557;51.698;3.942;2023-05-07T09:39:16;9.32;;;8.40;;
9222;SDS011;7557;51.698;3.942;2023-05-07T09:41:43;10.60;;;8.32;;
9222;SDS011;7557;51.698;3.942;2023-05-07T09:44:13;8.60;;;7.80;;
9222;SDS011;7557;51.698;3.942;2023-05-07T09:46:41;9.43;;;8.18;;
9222;SDS011;7557;51.698;3.942;2023-05-07T09:49:11;11.05;;;8.20;;
9222;SDS011;7557;51.698;3.942;2023-05-07T09:51:45;9.95;;;8.60;;
9222;SDS011;7557;51.698;3.942;2023-05-07T09:54:15;10.05;;;9.05;;
9222;SDS011;7557;51.698;3.942;2023-05-07T09:56:43;9.82;;;8.52;;
9222;SDS011;7557;51.698;3.942;2023-05-07T09:59:14;13.52;;;10.35;;
9222;SDS011;7557;51.698;3.942;2023-05-07T10:01:43;10.25;;;8.65;;
9222;SDS011;7557;51.698;3.942;2023-05-07T10:04:10;10.52;;;9.35;;
9222;SDS011;7557;51.698;3.942;2023-05-07T10:06:38;11.90;;;8.35;;
9222;SDS011;7557;51.698;3.942;2023-05-07T10:09:07;11.75;;;9.13;;
9222;SDS011;7557;51.698;3.942;2023-05-07T10:11:36;12.23;;;9.05;;
9222;SDS011;7557;51.698;3.942;2023-05-07T10:14:04;13.73;;;9.80;;
9222;SDS011;7557;51.698;3.942;2023-05-07T10:16:33;10.85;;;9.05;;
9222;SDS011;7557;51.698;3.942;2023-05-07T10:19:02;12.38;;;8.95;;
9222;SDS011;7557;51.698;3.942;2023-05-07T10:21:30;12.13;;;9.68;;
9222;SDS011;7557;51.698;3.942;2023-05-07T10:24:03;12.60;;;10.18;;
9222;SDS011;7557;51.698;3.942;2023-05-07T10:26:33;12.65;;;10.18;;
9222;SDS011;7557;51.698;3.942;2023-05-07T10:29:04;14.80;;;9.85;;
9222;SDS011;7557;51.698;3.942;2023-05-07T10:31:47;11.10;;;9.80;;
9222;SDS011;7557;51.698;3.942;2023-05-07T10:34:21;13.05;;;10.27;;
9222;SDS011;7557;51.698;3.942;2023-05-07T10:36:51;9.38;;;8.27;;
9222;SDS011;7557;51.698;3.942;2023-05-07T10:39:20;10.50;;;7.28;;
9222;SDS011;7557;51.698;3.942;2023-05-07T10:41:47;8.35;;;7.55;;
9222;SDS011;7557;51.698;3.942;2023-05-07T10:44:24;8.80;;;7.32;;
9222;SDS011;7557;51.698;3.942;2023-05-07T10:47:10;9.23;;;7.45;;
9222;SDS011;7557;51.698;3.942;2023-05-07T10:52:38;11.63;;;10.43;;
9222;SDS011;7557;51.698;3.942;2023-05-07T10:57:51;12.27;;;10.88;;
9222;SDS011;7557;51.698;3.942;2023-05-07T11:03:09;12.68;;;11.02;;
9222;SDS011;7557;51.698;3.942;2023-05-07T11:05:37;17.80;;;15.80;;
9222;SDS011;7557;51.698;3.942;2023-05-07T11:08:04;21.25;;;17.38;;
9222;SDS011;7557;51.698;3.942;2023-05-07T11:10:48;17.60;;;15.90;;
9222;SDS011;7557;51.698;3.942;2023-05-07T11:13:16;19.48;;;15.98;;
9222;SDS011;7557;51.698;3.942;2023-05-07T11:15:45;18.45;;;16.35;;
9222;SDS011;7557;51.698;3.942;2023-05-07T11:18:15;18.42;;;16.35;;
9222;SDS011;7557;51.698;3.942;2023-05-07T11:20:53;17.73;;;15.73;;
9222;SDS011;7557;51.698;3.942;2023-05-07T11:26:44;21.60;;;14.98;;
9222;SDS011;7557;51.698;3.942;2023-05-07T11:29:16;16.38;;;14.65;;
9222;SDS011;7557;51.698;3.942;2023-05-07T11:31:48;19.67;;;14.45;;
9222;SDS011;7557;51.698;3.942;2023-05-07T11:34:22;13.95;;;12.20;;
9222;SDS011;7557;51.698;3.942;2023-05-07T11:36:50;20.13;;;15.82;;
9222;SDS011;7557;51.698;3.942;2023-05-07T11:39:27;16.45;;;13.60;;
9222;SDS011;7557;51.698;3.942;2023-05-07T11:41:56;15.18;;;12.68;;
9222;SDS011;7557;51.698;3.942;2023-05-07T11:44:24;15.25;;;13.65;;
9222;SDS011;7557;51.698;3.942;2023-05-07T11:46:51;16.23;;;14.52;;
9222;SDS011;7557;51.698;3.942;2023-05-07T11:49:18;22.15;;;19.42;;
9222;SDS011;7557;51.698;3.942;2023-05-07T11:51:47;22.73;;;20.40;;
9222;SDS011;7557;51.698;3.942;2023-05-07T11:54:17;22.88;;;20.58;;
9222;SDS011;7557;51.698;3.942;2023-05-07T11:56:46;25.75;;;22.05;;
9222;SDS011;7557;51.698;3.942;2023-05-07T11:59:16;25.48;;;22.77;;
9222;SDS011;7557;51.698;3.942;2023-05-07T12:01:45;25.70;;;22.98;;
9222;SDS011;7557;51.698;3.942;2023-05-07T12:04:13;25.80;;;23.08;;
9222;SDS011;7557;51.698;3.942;2023-05-07T12:06:47;25.17;;;22.77;;
9222;SDS011;7557;51.698;3.942;2023-05-07T12:09:16;24.02;;;21.52;;
9222;SDS011;7557;51.698;3.942;2023-05-07T12:11:45;24.83;;;22.00;;
9222;SDS011;7557;51.698;3.942;2023-05-07T12:14:13;25.30;;;22.90;;
9222;SDS011;7557;51.698;3.942;2023-05-07T12:16:41;24.67;;;22.27;;
9222;SDS011;7557;51.698;3.942;2023-05-07T12:19:09;24.45;;;21.48;;
9222;SDS011;7557;51.698;3.942;2023-05-07T12:21:37;22.10;;;20.08;;
9222;SDS011;7557;51.698;3.942;2023-05-07T12:24:07;23.75;;;20.98;;
9222;SDS011;7557;51.698;3.942;2023-05-07T12:26:37;24.25;;;21.45;;
9222;SDS011;7557;51.698;3.942;2023-05-07T12:29:05;28.63;;;20.92;;
9222;SDS011;7557;51.698;3.942;2023-05-07T12:31:33;21.45;;;19.35;;
9222;SDS011;7557;51.698;3.942;2023-05-07T12:34:00;22.60;;;20.20;;
9222;SDS011;7557;51.698;3.942;2023-05-07T12:36:35;21.25;;;19.35;;
9222;SDS011;7557;51.698;3.942;2023-05-07T12:39:04;20.48;;;18.25;;
9222;SDS011;7557;51.698;3.942;2023-05-07T12:41:34;20.05;;;17.98;;
9222;SDS011;7557;51.698;3.942;2023-05-07T12:44:04;27.48;;;21.92;;
9222;SDS011;7557;51.698;3.942;2023-05-07T12:46:32;24.05;;;21.52;;
9222;SDS011;7557;51.698;3.942;2023-05-07T12:49:04;27.63;;;23.10;;
9222;SDS011;7557;51.698;3.942;2023-05-07T12:51:31;22.15;;;20.33;;
9222;SDS011;7557;51.698;3.942;2023-05-07T12:54:01;23.83;;;20.17;;
9222;SDS011;7557;51.698;3.942;2023-05-07T12:56:30;22.35;;;20.13;;
9222;SDS011;7557;51.698;3.942;2023-05-07T12:58:59;22.85;;;20.20;;
9222;SDS011;7557;51.698;3.942;2023-05-07T13:01:28;21.60;;;19.65;;
9222;SDS011;7557;51.698;3.942;2023-05-07T13:03:58;22.48;;;20.38;;
9222;SDS011;7557;51.698;3.942;2023-05-07T13:06:27;23.35;;;21.00;;
9222;SDS011;7557;51.698;3.942;2023-05-07T13:08:56;24.20;;;19.73;;
9222;SDS011;7557;51.698;3.942;2023-05-07T13:11:23;23.73;;;19.25;;
9222;SDS011;7557;51.698;3.942;2023-05-07T13:13:50;21.50;;;19.35;;
9222;SDS011;7557;51.698;3.942;2023-05-07T13:16:19;23.65;;;20.02;;
9222;SDS011;7557;51.698;3.942;2023-05-07T13:18:46;23.23;;;20.75;;
9222;SDS011;7557;51.698;3.942;2023-05-07T13:21:13;25.75;;;23.02;;
9222;SDS011;7557;51.698;3.942;2023-05-07T13:23:40;27.88;;;24.88;;
9222;SDS011;7557;51.698;3.942;2023-05-07T13:26:08;24.52;;;21.98;;
9222;SDS011;7557;51.698;3.942;2023-05-07T13:28:40;25.17;;;22.52;;
9222;SDS011;7557;51.698;3.942;2023-05-07T13:31:08;25.52;;;22.67;;
9222;SDS011;7557;51.698;3.942;2023-05-07T13:33:37;23.52;;;21.33;;
9222;SDS011;7557;51.698;3.942;2023-05-07T13:36:04;26.48;;;22.67;;
9222;SDS011;7557;51.698;3.942;2023-05-07T13:38:32;25.58;;;22.50;;
9222;SDS011;7557;51.698;3.942;2023-05-07T13:40:59;23.63;;;21.23;;
9222;SDS011;7557;51.698;3.942;2023-05-07T13:43:26;23.38;;;20.88;;
9222;SDS011;7557;51.698;3.942;2023-05-07T13:45:54;24.98;;;19.13;;
9222;SDS011;7557;51.698;3.942;2023-05-07T13:48:22;23.58;;;21.42;;
9222;SDS011;7557;51.698;3.942;2023-05-07T13:50:52;23.20;;;20.90;;
9222;SDS011;7557;51.698;3.942;2023-05-07T13:53:19;23.77;;;21.25;;
9222;SDS011;7557;51.698;3.942;2023-05-07T13:55:46;24.55;;;22.25;;
9222;SDS011;7557;51.698;3.942;2023-05-07T13:58:13;23.63;;;21.25;;
9222;SDS011;7557;51.698;3.942;2023-05-07T14:00:40;23.88;;;21.58;;
9222;SDS011;7557;51.698;3.942;2023-05-07T14:03:08;25.48;;;22.92;;
9222;SDS011;7557;51.698;3.942;2023-05-07T14:05:35;26.75;;;23.88;;
9222;SDS011;7557;51.698;3.942;2023-05-07T14:08:04;24.80;;;22.20;;
9222;SDS011;7557;51.698;3.942;2023-05-07T14:10:32;32.47;;;26.33;;
9222;SDS011;7557;51.698;3.942;2023-05-07T14:13:00;29.95;;;26.92;;
9222;SDS011;7557;51.698;3.942;2023-05-07T14:15:27;31.13;;;26.65;;
9222;SDS011;7557;51.698;3.942;2023-05-07T14:17:55;32.08;;;28.80;;
9222;SDS011;7557;51.698;3.942;2023-05-07T14:20:24;31.23;;;27.90;;
9222;SDS011;7557;51.698;3.942;2023-05-07T14:22:51;33.75;;;27.17;;
9222;SDS011;7557;51.698;3.942;2023-05-07T14:25:20;29.85;;;26.27;;
9222;SDS011;7557;51.698;3.942;2023-05-07T14:27:47;29.42;;;24.50;;
9222;SDS011;7557;51.698;3.942;2023-05-07T14:30:15;28.15;;;25.23;;
9222;SDS011;7557;51.698;3.942;2023-05-07T14:32:42;28.33;;;24.83;;
9222;SDS011;7557;51.698;3.942;2023-05-07T14:35:09;32.67;;;24.67;;
9222;SDS011;7557;51.698;3.942;2023-05-07T14:37:36;24.92;;;22.33;;
9222;SDS011;7557;51.698;3.942;2023-05-07T14:40:04;20.83;;;17.65;;
9222;SDS011;7557;51.698;3.942;2023-05-07T14:42:34;22.40;;;17.90;;
9222;SDS011;7557;51.698;3.942;2023-05-07T14:45:01;20.35;;;17.17;;
9222;SDS011;7557;51.698;3.942;2023-05-07T14:47:28;21.25;;;17.75;;
9222;SDS011;7557;51.698;3.942;2023-05-07T14:49:56;23.42;;;20.80;;
9222;SDS011;7557;51.698;3.942;2023-05-07T14:52:24;26.80;;;20.38;;
9222;SDS011;7557;51.698;3.942;2023-05-07T14:54:51;25.33;;;20.77;;
9222;SDS011;7557;51.698;3.942;2023-05-07T14:57:18;25.52;;;20.15;;
9222;SDS011;7557;51.698;3.942;2023-05-07T14:59:47;23.73;;;21.15;;
9222;SDS011;7557;51.698;3.942;2023-05-07T15:02:14;24.02;;;21.27;;
9222;SDS011;7557;51.698;3.942;2023-05-07T15:04:42;23.70;;;17.98;;
9222;SDS011;7557;51.698;3.942;2023-05-07T15:07:11;19.45;;;17.02;;